createdAt,value
2024-01-29T00:00:18.296Z,1.40
2024-01-29T00:03:05.354Z,1.70
2024-01-29T00:05:53.443Z,2.13
2024-01-29T00:08:39.891Z,2.50
2024-01-29T00:11:26.576Z,1.20
2024-01-29T00:14:13.385Z,1.50
2024-01-29T00:17:01.707Z,1.37
2024-01-29T00:19:48.553Z,2.40
2024-01-29T00:22:36.913Z,2.60
2024-01-29T00:25:23.570Z,1.50
2024-01-29T00:28:10.029Z,3.37
2024-01-29T00:30:56.712Z,1.20
2024-01-29T00:33:43.608Z,1.90
2024-01-29T00:36:30.489Z,1.30
2024-01-29T00:39:18.563Z,2.47
2024-01-29T00:42:06.510Z,1.33
2024-01-29T00:44:53.267Z,1.30
2024-01-29T00:47:40.085Z,2.23
2024-01-29T00:50:26.649Z,1.80
2024-01-29T00:53:13.150Z,1.87
2024-01-29T00:56:01.567Z,1.53
2024-01-29T00:58:48.435Z,2.40
2024-01-29T01:01:35.220Z,3.70
2024-01-29T01:04:22.083Z,1.70
2024-01-29T01:07:09.372Z,2.47
2024-01-29T01:09:56.469Z,2.00
2024-01-29T01:12:45.167Z,3.13
2024-01-29T01:15:31.660Z,1.33
2024-01-29T01:18:18.149Z,2.23
2024-01-29T01:21:05.095Z,2.07
2024-01-29T01:23:51.600Z,1.37
2024-01-29T01:26:37.990Z,1.83
2024-01-29T01:29:25.825Z,1.60
2024-01-29T01:32:12.664Z,1.73
2024-01-29T01:34:59.712Z,2.93
2024-01-29T01:37:46.572Z,1.33
2024-01-29T01:40:33.023Z,1.50
2024-01-29T01:43:21.668Z,2.57
2024-01-29T01:46:23.380Z,2.57
2024-01-29T01:49:11.699Z,2.70
2024-01-29T01:51:58.735Z,1.93
2024-01-29T01:54:47.167Z,1.77
2024-01-29T01:57:34.074Z,1.80
2024-01-29T02:00:21.264Z,2.00
2024-01-29T02:03:09.233Z,1.57
2024-01-29T02:05:56.588Z,1.30
2024-01-29T02:08:43.975Z,2.80
2024-01-29T02:11:30.814Z,2.33
2024-01-29T02:14:17.565Z,2.20
2024-01-29T02:17:04.502Z,3.23
2024-01-29T02:19:52.866Z,1.50
2024-01-29T02:22:45.017Z,2.90
2024-01-29T02:25:31.659Z,1.30
2024-01-29T02:28:18.166Z,1.67
2024-01-29T02:31:05.232Z,2.30
2024-01-29T02:34:29.484Z,1.40
2024-01-29T02:37:16.099Z,1.50
2024-01-29T02:40:05.379Z,2.07
2024-01-29T02:42:52.088Z,1.37
2024-01-29T02:45:38.590Z,3.23
2024-01-29T02:48:25.406Z,1.17
2024-01-29T02:51:12.184Z,2.60
2024-01-29T02:53:58.691Z,2.00
2024-01-29T02:56:46.725Z,1.53
2024-01-29T02:59:33.791Z,1.47
2024-01-29T03:02:20.539Z,1.50
2024-01-29T03:05:08.394Z,2.07
2024-01-29T03:07:55.289Z,1.50
2024-01-29T03:10:41.869Z,1.73
2024-01-29T03:13:29.678Z,1.30
2024-01-29T03:16:16.496Z,1.63
2024-01-29T03:19:03.215Z,1.60
2024-01-29T03:21:50.099Z,1.40
2024-01-29T03:24:37.223Z,1.53
2024-01-29T03:27:23.706Z,2.93
2024-01-29T03:30:12.826Z,2.40
2024-01-29T03:32:59.373Z,1.40
2024-01-29T03:35:45.873Z,1.90
2024-01-29T03:38:32.332Z,2.83
2024-01-29T03:41:19.328Z,2.10
2024-01-29T03:44:06.436Z,1.97
2024-01-29T03:46:54.189Z,1.37
2024-01-29T03:49:41.152Z,2.70
2024-01-29T03:52:28.117Z,2.20
2024-01-29T03:55:14.779Z,2.63
2024-01-29T03:58:01.774Z,1.40
2024-01-29T04:00:48.449Z,1.57
2024-01-29T04:03:36.351Z,1.50
2024-01-29T04:06:23.052Z,1.50
2024-01-29T04:09:10.595Z,4.73
2024-01-29T04:11:57.612Z,2.70
2024-01-29T04:15:31.609Z,1.67
2024-01-29T04:18:18.399Z,1.37
2024-01-29T04:21:08.512Z,1.53
2024-01-29T04:23:54.987Z,2.50
2024-01-29T04:26:42.135Z,2.03
2024-01-29T04:29:28.960Z,1.47
2024-01-29T04:32:15.422Z,2.90
2024-01-29T04:35:02.480Z,2.50
2024-01-29T04:37:52.495Z,4.97
2024-01-29T04:40:40.684Z,3.17
2024-01-29T04:43:27.496Z,3.17
2024-01-29T04:46:14.442Z,1.50
2024-01-29T04:49:01.078Z,3.27
2024-01-29T04:51:47.813Z,1.40
2024-01-29T04:54:36.019Z,2.20
2024-01-29T04:57:24.020Z,5.13
2024-01-29T05:00:11.929Z,1.60
2024-01-29T05:02:58.432Z,3.03
2024-01-29T05:05:45.494Z,1.43
2024-01-29T05:08:32.260Z,2.30
2024-01-29T05:11:20.404Z,3.30
2024-01-29T05:14:07.085Z,1.50
2024-01-29T05:16:53.652Z,1.77
2024-01-29T05:19:41.527Z,3.07
2024-01-29T05:22:27.965Z,2.80
2024-01-29T05:25:14.737Z,2.27
2024-01-29T05:28:03.018Z,3.07
2024-01-29T05:30:49.980Z,2.60
2024-01-29T05:33:36.770Z,2.67
2024-01-29T05:36:23.621Z,3.93
2024-01-29T05:39:10.171Z,3.03
2024-01-29T05:41:56.786Z,2.80
2024-01-29T05:44:44.637Z,3.47
2024-01-29T05:47:31.197Z,1.70
2024-01-29T05:50:18.192Z,1.53
2024-01-29T05:53:05.348Z,2.60
2024-01-29T05:55:51.951Z,2.93
2024-01-29T05:58:38.324Z,2.13
2024-01-29T06:01:26.347Z,2.67
2024-01-29T06:04:13.223Z,3.00
2024-01-29T06:07:00.482Z,4.77
2024-01-29T06:09:47.105Z,3.40
2024-01-29T06:12:33.810Z,3.40
2024-01-29T06:15:20.680Z,2.90
2024-01-29T06:18:08.905Z,3.13
2024-01-29T06:20:55.859Z,3.13
2024-01-29T06:23:42.317Z,3.53
2024-01-29T06:26:28.887Z,3.50
2024-01-29T06:29:15.654Z,1.60
2024-01-29T06:32:02.372Z,5.47
2024-01-29T06:34:57.994Z,2.70
2024-01-29T06:37:44.610Z,2.90
2024-01-29T06:40:31.376Z,1.90
2024-01-29T06:43:18.088Z,1.77
2024-01-29T06:46:04.702Z,2.60
2024-01-29T06:48:51.415Z,2.50
2024-01-29T06:51:39.654Z,3.07
2024-01-29T06:54:27.065Z,1.63
2024-01-29T06:57:13.995Z,2.47
2024-01-29T07:00:00.509Z,2.87
2024-01-29T07:02:47.176Z,1.47
2024-01-29T07:05:33.686Z,3.13
2024-01-29T07:08:21.620Z,2.17
2024-01-29T07:11:08.488Z,2.07
2024-01-29T07:13:55.012Z,1.77
2024-01-29T07:16:41.536Z,1.87
2024-01-29T07:19:34.127Z,2.37
2024-01-29T07:22:20.983Z,1.63
2024-01-29T07:25:11.284Z,1.97
2024-01-29T07:28:00.979Z,1.87
2024-01-29T07:30:47.634Z,1.73
2024-01-29T07:33:34.457Z,2.00
2024-01-29T07:36:21.046Z,2.23
2024-01-29T07:39:07.706Z,3.80
2024-01-29T07:41:55.913Z,1.70
2024-01-29T07:44:42.755Z,1.87
2024-01-29T07:47:29.197Z,1.40
2024-01-29T07:50:16.147Z,1.60
2024-01-29T07:53:03.756Z,3.23
2024-01-29T07:55:50.781Z,1.57
2024-01-29T07:58:38.832Z,2.30
2024-01-29T08:01:25.775Z,1.60
2024-01-29T08:04:12.872Z,1.73
2024-01-29T08:07:00.082Z,2.30
2024-01-29T08:09:47.393Z,3.37
2024-01-29T08:12:33.949Z,2.00
2024-01-29T08:15:23.772Z,4.17
2024-01-29T08:18:10.817Z,1.60
2024-01-29T08:20:57.743Z,2.83
2024-01-29T08:23:44.712Z,3.40
2024-01-29T08:26:31.178Z,3.67
2024-01-29T08:29:17.847Z,2.40
2024-01-29T08:32:06.318Z,1.93
2024-01-29T08:34:52.993Z,2.47
2024-01-29T08:37:40.001Z,3.20
2024-01-29T08:40:26.718Z,3.73
2024-01-29T08:43:13.123Z,1.77
2024-01-29T08:45:59.612Z,2.20
2024-01-29T08:48:49.048Z,2.17
2024-01-29T08:51:35.634Z,3.27
2024-01-29T08:54:22.121Z,4.00
2024-01-29T08:57:08.634Z,2.50
2024-01-29T08:59:55.147Z,2.00
2024-01-29T09:02:42.403Z,3.70
2024-01-29T09:05:30.413Z,3.90
2024-01-29T09:08:19.420Z,2.00
2024-01-29T09:11:07.190Z,1.93
2024-01-29T09:13:53.831Z,1.97
2024-01-29T09:16:40.453Z,2.87
2024-01-29T09:19:27.063Z,1.90
2024-01-29T09:22:15.540Z,2.90
2024-01-29T09:25:02.335Z,1.63
2024-01-29T09:27:49.409Z,3.77
2024-01-29T09:30:36.295Z,1.93
2024-01-29T09:33:23.300Z,4.47
2024-01-29T09:36:10.248Z,3.00
2024-01-29T09:38:58.244Z,2.77
2024-01-29T09:41:46.539Z,2.90
2024-01-29T09:44:38.804Z,3.03
2024-01-29T09:47:27.354Z,2.00
2024-01-29T09:50:16.661Z,2.40
2024-01-29T09:53:04.631Z,2.97
2024-01-29T09:55:52.887Z,1.80
2024-01-29T09:58:39.575Z,2.30
2024-01-29T10:01:26.244Z,3.30
2024-01-29T10:04:13.571Z,6.00
2024-01-29T10:07:00.627Z,2.10
2024-01-29T10:09:47.485Z,2.70
2024-01-29T10:12:35.538Z,2.00
2024-01-29T10:15:22.936Z,3.70
2024-01-29T10:18:12.918Z,5.20
2024-01-29T10:21:04.319Z,2.87
2024-01-29T10:23:56.560Z,1.70
2024-01-29T10:26:43.618Z,2.57
2024-01-29T10:29:31.833Z,3.00
2024-01-29T10:32:19.256Z,2.23
2024-01-29T10:35:06.953Z,2.57
2024-01-29T10:37:55.131Z,2.20
2024-01-29T10:40:43.242Z,2.10
2024-01-29T10:43:38.471Z,4.57
2024-01-29T10:46:26.935Z,2.40
2024-01-29T10:49:13.619Z,2.03
2024-01-29T10:52:02.592Z,2.50
2024-01-29T10:54:49.395Z,3.70
2024-01-29T10:57:38.303Z,2.17
2024-01-29T11:00:25.499Z,2.17
2024-01-29T11:03:14.609Z,2.40
2024-01-29T11:06:11.225Z,3.67
2024-01-29T11:09:03.466Z,3.00
2024-01-29T11:11:52.568Z,2.77
2024-01-29T11:14:39.527Z,3.13
2024-01-29T11:17:26.804Z,2.63
2024-01-29T11:20:16.611Z,2.77
2024-01-29T11:23:05.345Z,4.10
2024-01-29T11:25:52.593Z,2.63
2024-01-29T11:28:40.387Z,4.23
2024-01-29T11:31:40.226Z,4.20
2024-01-29T11:34:30.549Z,2.67
2024-01-29T11:37:29.645Z,4.13
2024-01-29T11:40:36.347Z,3.50
2024-01-29T11:43:23.232Z,3.10
2024-01-29T11:46:12.891Z,3.10
2024-01-29T11:49:00.565Z,2.90
2024-01-29T11:51:50.019Z,2.27
2024-01-29T11:54:38.688Z,2.40
2024-01-29T11:57:25.453Z,6.60
2024-01-29T12:00:12.922Z,2.77
2024-01-29T12:02:59.576Z,5.10
2024-01-29T12:05:48.292Z,2.63
2024-01-29T12:08:35.088Z,3.43
2024-01-29T12:11:23.289Z,2.43
2024-01-29T12:14:10.551Z,2.70
2024-01-29T12:16:58.429Z,3.87
2024-01-29T12:19:45.460Z,6.07
2024-01-29T12:22:32.509Z,4.30
2024-01-29T12:25:19.517Z,3.57
2024-01-29T12:28:11.196Z,3.17
2024-01-29T12:30:59.414Z,5.20
2024-01-29T12:33:48.801Z,3.20
2024-01-29T12:36:35.894Z,6.73
2024-01-29T12:39:22.425Z,4.50
2024-01-29T12:42:16.803Z,3.20
2024-01-29T12:45:12.062Z,3.03
2024-01-29T12:48:09.448Z,3.63
2024-01-29T12:50:56.267Z,4.20
2024-01-29T12:53:44.461Z,10.73
2024-01-29T12:56:32.489Z,4.07
2024-01-29T12:59:19.440Z,3.87
2024-01-29T13:02:09.123Z,4.23
2024-01-29T13:04:55.813Z,5.33
2024-01-29T13:07:44.489Z,5.43
2024-01-29T13:10:31.433Z,5.93
2024-01-29T13:13:18.189Z,3.90
2024-01-29T13:16:05.430Z,5.20
2024-01-29T13:18:54.299Z,4.03
2024-01-29T13:21:45.535Z,4.13
2024-01-29T13:24:31.972Z,4.27
2024-01-29T13:27:18.929Z,6.00
2024-01-29T13:30:06.466Z,5.90
2024-01-29T13:32:53.065Z,5.77
2024-01-29T13:35:40.707Z,3.27
2024-01-29T13:38:27.220Z,5.00
2024-01-29T13:41:13.855Z,4.17
2024-01-29T13:44:00.247Z,5.63
2024-01-29T13:46:47.296Z,4.80
2024-01-29T13:49:33.799Z,4.77
2024-01-29T13:52:21.577Z,6.63
2024-01-29T13:55:09.637Z,9.33
2024-01-29T13:57:56.532Z,5.80
2024-01-29T14:00:43.015Z,4.67
2024-01-29T14:03:29.475Z,3.60
2024-01-29T14:06:16.769Z,5.77
2024-01-29T14:09:05.961Z,8.03
2024-01-29T14:11:52.494Z,6.63
2024-01-29T14:14:46.352Z,4.87
2024-01-29T14:17:35.151Z,6.50
2024-01-29T14:20:22.021Z,29.90
2024-01-29T14:23:08.958Z,18.43
2024-01-29T14:25:56.885Z,6.07
2024-01-29T14:28:43.527Z,7.30
2024-01-29T14:31:30.224Z,4.13
2024-01-29T14:34:16.788Z,4.67
2024-01-29T14:37:03.726Z,4.83
2024-01-29T14:39:50.319Z,7.97
2024-01-29T14:42:38.159Z,7.53
2024-01-29T14:45:24.654Z,4.73
2024-01-29T14:48:11.641Z,10.23
2024-01-29T14:50:59.470Z,5.13
2024-01-29T14:53:46.376Z,13.33
2024-01-29T14:56:33.026Z,5.57
2024-01-29T14:59:21.229Z,5.77
2024-01-29T15:02:08.775Z,5.93
2024-01-29T15:04:56.244Z,4.37
2024-01-29T15:07:43.340Z,4.63
2024-01-29T15:10:30.635Z,4.73
2024-01-29T15:13:18.625Z,4.80
2024-01-29T15:16:08.164Z,7.33
2024-01-29T15:19:37.836Z,7.07
2024-01-29T15:22:24.673Z,4.03
2024-01-29T15:25:11.666Z,4.23
2024-01-29T15:27:58.398Z,7.47
2024-01-29T15:30:45.543Z,5.07
2024-01-29T15:33:34.296Z,5.20
2024-01-29T15:36:21.138Z,10.00
2024-01-29T15:39:08.981Z,4.23
2024-01-29T15:41:55.652Z,5.83
2024-01-29T15:44:43.932Z,4.37
2024-01-29T15:47:31.627Z,4.93
2024-01-29T15:50:20.148Z,4.23
2024-01-29T15:53:06.757Z,3.10
2024-01-29T15:55:54.260Z,5.23
2024-01-29T15:58:40.721Z,3.80
2024-01-29T16:01:27.393Z,5.53
2024-01-29T16:04:16.530Z,3.50
2024-01-29T16:07:05.657Z,4.40
2024-01-29T16:09:52.850Z,4.73
2024-01-29T16:12:40.184Z,5.87
2024-01-29T16:15:28.693Z,4.20
2024-01-29T16:18:15.766Z,5.57
2024-01-29T16:21:02.596Z,3.67
2024-01-29T16:23:52.489Z,4.97
2024-01-29T16:26:39.386Z,4.30
2024-01-29T16:29:27.574Z,5.60
2024-01-29T16:32:14.257Z,5.60
2024-01-29T16:35:01.315Z,5.17
2024-01-29T16:37:48.262Z,5.23
2024-01-29T16:40:36.928Z,4.07
2024-01-29T16:43:23.402Z,7.27
2024-01-29T16:46:10.736Z,5.57
2024-01-29T16:48:58.863Z,7.43
2024-01-29T16:51:45.570Z,7.37
2024-01-29T16:54:32.374Z,5.77
2024-01-29T16:57:20.400Z,4.50
2024-01-29T17:00:08.737Z,4.40
2024-01-29T17:02:55.150Z,6.53
2024-01-29T17:05:42.005Z,7.93
2024-01-29T17:08:29.475Z,9.70
2024-01-29T17:11:16.376Z,7.83
2024-01-29T17:14:04.586Z,5.67
2024-01-29T17:16:51.518Z,6.10
2024-01-29T17:19:38.552Z,5.07
2024-01-29T17:22:25.401Z,4.90
2024-01-29T17:25:12.621Z,4.80
2024-01-29T17:27:59.596Z,7.70
2024-01-29T17:30:47.378Z,6.60
2024-01-29T17:33:34.382Z,8.73
2024-01-29T17:36:22.206Z,5.10
2024-01-29T17:39:10.506Z,5.90
2024-01-29T17:41:58.636Z,6.43
2024-01-29T17:44:45.220Z,4.53
2024-01-29T17:47:33.641Z,6.50
2024-01-29T17:50:20.509Z,6.33
2024-01-29T17:53:07.297Z,6.77
2024-01-29T17:55:53.887Z,7.43
2024-01-29T17:58:40.485Z,7.20
2024-01-29T18:01:27.434Z,8.23
2024-01-29T18:04:15.621Z,6.23
2024-01-29T18:07:02.547Z,7.63
2024-01-29T18:09:49.199Z,5.33
2024-01-29T18:12:35.845Z,7.20
2024-01-29T18:15:22.298Z,8.60
2024-01-29T18:18:09.156Z,7.23
2024-01-29T18:20:58.785Z,7.53
2024-01-29T18:23:45.598Z,8.10
2024-01-29T18:26:32.204Z,5.53
2024-01-29T18:29:18.933Z,7.53
2024-01-29T18:32:08.716Z,7.70
2024-01-29T18:34:55.802Z,6.57
2024-01-29T18:37:44.642Z,7.80
2024-01-29T18:40:34.414Z,9.93
2024-01-29T18:43:21.266Z,5.87
2024-01-29T18:46:08.393Z,9.13
2024-01-29T18:48:55.223Z,6.83
2024-01-29T18:51:44.300Z,6.63
2024-01-29T18:54:32.669Z,8.37
2024-01-29T18:57:19.349Z,5.57
2024-01-29T19:00:06.908Z,5.37
2024-01-29T19:02:53.886Z,7.60
2024-01-29T19:05:40.643Z,7.10
2024-01-29T19:08:27.247Z,9.27
2024-01-29T19:11:15.251Z,9.07
2024-01-29T19:14:01.759Z,8.43
2024-01-29T19:16:48.318Z,10.57
2024-01-29T19:19:34.849Z,9.53
2024-01-29T19:22:21.989Z,17.67
2024-01-29T19:25:09.315Z,21.33
2024-01-29T19:27:57.520Z,24.00
2024-01-29T19:30:46.391Z,29.00
2024-01-29T19:33:32.994Z,22.83
2024-01-29T19:36:19.881Z,27.27
2024-01-29T19:39:06.477Z,21.27
2024-01-29T19:41:54.088Z,18.67
2024-01-29T19:44:42.850Z,20.00
2024-01-29T19:47:29.352Z,22.97
2024-01-29T19:50:17.754Z,21.87
2024-01-29T19:53:05.151Z,19.57
2024-01-29T19:55:52.404Z,19.90
2024-01-29T19:58:39.155Z,14.57
2024-01-29T20:01:27.225Z,15.50
2024-01-29T20:04:14.118Z,13.50
2024-01-29T20:07:00.975Z,10.83
2024-01-29T20:09:49.473Z,13.47
2024-01-29T20:12:36.168Z,12.30
2024-01-29T20:15:22.620Z,11.70
2024-01-29T20:18:10.576Z,12.00
2024-01-29T20:20:57.462Z,12.40
2024-01-29T20:23:46.702Z,11.40
2024-01-29T20:26:33.265Z,13.47
2024-01-29T20:29:19.622Z,12.73
2024-01-29T20:32:06.719Z,13.13
2024-01-29T20:34:54.646Z,11.03
2024-01-29T20:37:41.413Z,11.80
2024-01-29T20:40:28.260Z,9.67
2024-01-29T20:43:15.118Z,9.60
2024-01-29T20:46:05.106Z,10.20
2024-01-29T20:48:52.050Z,9.90
2024-01-29T20:51:41.305Z,9.30
2024-01-29T20:54:27.651Z,9.17
2024-01-29T20:57:14.206Z,7.60
2024-01-29T21:00:00.736Z,7.30
2024-01-29T21:02:47.848Z,8.73
2024-01-29T21:05:35.637Z,8.73
2024-01-29T21:08:24.113Z,7.17
2024-01-29T21:11:12.157Z,7.63
2024-01-29T21:13:58.577Z,7.87
2024-01-29T21:16:45.084Z,7.03
2024-01-29T21:19:31.793Z,6.83
2024-01-29T21:22:18.643Z,10.33
2024-01-29T21:25:10.787Z,8.43
2024-01-29T21:27:57.908Z,7.37
2024-01-29T21:30:44.319Z,9.43
2024-01-29T21:33:30.925Z,8.10
2024-01-29T21:36:18.788Z,5.87
2024-01-29T21:39:06.638Z,9.10
2024-01-29T21:41:54.759Z,7.63
2024-01-29T21:44:41.687Z,7.57
2024-01-29T21:47:28.597Z,6.90
2024-01-29T21:50:15.969Z,8.60
2024-01-29T21:53:02.435Z,10.83
2024-01-29T21:55:49.046Z,6.73
2024-01-29T21:58:37.124Z,8.37
2024-01-29T22:01:23.915Z,7.77
2024-01-29T22:04:11.003Z,6.97
2024-01-29T22:06:58.210Z,7.00
2024-01-29T22:09:46.690Z,9.03
2024-01-29T22:12:37.650Z,6.03
2024-01-29T22:15:25.290Z,7.90
2024-01-29T22:18:12.054Z,7.20
2024-01-29T22:20:59.311Z,6.07
2024-01-29T22:23:46.172Z,7.07
2024-01-29T22:26:33.082Z,8.17
2024-01-29T22:29:19.814Z,8.80
2024-01-29T22:32:08.740Z,9.13
2024-01-29T22:34:55.298Z,7.53
2024-01-29T22:37:42.210Z,9.33
2024-01-29T22:40:28.877Z,8.27
2024-01-29T22:43:17.433Z,9.27
2024-01-29T22:46:04.598Z,8.63
2024-01-29T22:48:54.999Z,7.63
2024-01-29T22:51:44.916Z,8.17
2024-01-29T22:54:31.550Z,6.87
2024-01-29T22:57:18.045Z,9.13
2024-01-29T23:00:16.041Z,7.90
2024-01-29T23:03:04.141Z,7.93
2024-01-29T23:05:52.042Z,8.03
2024-01-29T23:08:38.644Z,9.83
2024-01-29T23:11:25.019Z,7.67
2024-01-29T23:14:12.917Z,7.80
2024-01-29T23:17:00.707Z,8.63
2024-01-29T23:19:47.823Z,9.27
2024-01-29T23:22:35.881Z,8.13
2024-01-29T23:25:22.755Z,8.67
2024-01-29T23:28:09.713Z,7.67
2024-01-29T23:30:56.320Z,8.57
2024-01-29T23:33:42.950Z,10.40
2024-01-29T23:36:29.854Z,12.73
2024-01-29T23:39:17.621Z,9.70
2024-01-29T23:42:04.820Z,8.00
2024-01-29T23:44:51.624Z,9.40
2024-01-29T23:47:38.219Z,8.10
2024-01-29T23:50:24.724Z,7.97
2024-01-29T23:53:11.132Z,8.17
2024-01-29T23:55:59.227Z,9.20
2024-01-29T23:58:45.966Z,9.23
